Time;durP1;ratioP1;P1;durP2;ratioP2;P2;SDS_P1;SDS_P2;PMS_P1;PMS_P2;Temp;Humidity;BMP_temperature;BMP_pressure;BME280_temperature;BME280_humidity;BME280_pressure;Samples;Min_cycle;Max_cycle;Signal;HPM_P1;HPM_P2
2021/12/26 00:00:44;;;;;;;33.13;17.00;;;;;;;-5.22;76.89;141010.20;1559189;92;21114;-64
2021/12/26 00:03:11;;;;;;;23.85;12.28;;;;;;;-5.23;77.02;141007.75;1559020;92;21056;-65
2021/12/26 00:05:38;;;;;;;22.95;11.68;;;;;;;-5.22;77.29;141010.20;1588436;90;21130;-64
2021/12/26 00:08:05;;;;;;;24.05;11.00;;;;;;;-5.22;77.18;141008.97;1588198;90;21622;-63
2021/12/26 00:10:33;;;;;;;26.85;10.82;;;;;;;-5.24;77.31;141005.30;1588280;89;21073;-63
2021/12/26 00:13:03;;;;;;;26.93;12.20;;;;;;;-5.27;77.27;140997.84;1588284;89;21089;-63
2021/12/26 00:15:30;;;;;;;26.70;10.80;;;;;;;-5.26;77.58;141000.34;1588435;90;21122;-64
2021/12/26 00:17:57;;;;;;;25.45;12.30;;;;;;;-5.30;77.41;140991.66;1588405;90;21550;-64
2021/12/26 00:20:25;;;;;;;28.32;13.40;;;;;;;-5.28;77.68;140996.61;1588742;90;21732;-66
2021/12/26 00:22:51;;;;;;;32.25;14.68;;;;;;;-5.27;77.64;140997.84;1590417;90;21062;-66
2021/12/26 00:25:18;;;;;;;31.68;14.83;;;;;;;-5.24;77.64;141005.30;1590202;90;21058;-66
2021/12/26 00:27:45;;;;;;;33.85;14.85;;;;;;;-5.30;77.51;140990.42;1590382;89;21125;-64
2021/12/26 00:30:19;;;;;;;31.10;13.80;;;;;;;-5.35;77.67;140978.06;1590390;90;21547;-64
2021/12/26 00:32:49;;;;;;;22.40;12.20;;;;;;;-5.37;77.61;140974.33;1590359;90;21093;-64
2021/12/26 00:35:19;;;;;;;25.52;12.07;;;;;;;-5.43;77.68;140958.28;1590573;90;21088;-64
2021/12/26 00:37:46;;;;;;;28.02;12.13;;;;;;;-5.50;77.84;140942.19;1590554;90;21069;-64
2021/12/26 00:40:16;;;;;;;27.85;12.03;;;;;;;-5.52;78.01;140937.23;1590509;90;21089;-65
2021/12/26 00:42:43;;;;;;;24.40;11.85;;;;;;;-5.48;78.21;140948.38;1590515;90;21535;-68
2021/12/26 00:45:11;;;;;;;31.60;11.70;;;;;;;-5.47;78.18;140950.88;1590503;90;21097;-64
2021/12/26 00:47:38;;;;;;;29.72;12.15;;;;;;;-5.53;78.09;140934.78;1590511;90;21081;-64
2021/12/26 00:50:09;;;;;;;24.72;10.80;;;;;;;-5.61;78.24;140915.00;1590519;90;21564;-65
2021/12/26 00:52:37;;;;;;;29.95;12.82;;;;;;;-5.64;78.40;140907.59;1590619;90;21069;-62
2021/12/26 00:55:07;;;;;;;24.70;11.50;;;;;;;-5.69;78.45;140896.45;1590512;90;21045;-65
2021/12/26 00:57:34;;;;;;;29.12;12.28;;;;;;;-5.71;78.80;140891.50;1590514;90;21549;-65
2021/12/26 01:00:03;;;;;;;35.65;15.13;;;;;;;-5.71;78.80;140891.50;1590451;89;21082;-66
2021/12/26 01:02:31;;;;;;;32.75;13.78;;;;;;;-5.75;78.82;140882.86;1590707;90;21050;-65
2021/12/26 01:04:57;;;;;;;32.65;13.62;;;;;;;-5.75;78.94;140881.59;1590539;90;21057;-66
2021/12/26 01:07:53;;;;;;;36.60;16.67;;;;;;;-5.79;78.99;140872.95;1590289;90;21074;-65
2021/12/26 01:10:10;;;;;;;37.48;15.80;;;;;;;-5.80;79.08;140870.50;1588688;90;21089;-65
2021/12/26 01:12:40;;;;;;;38.63;16.17;;;;;;;-5.84;79.20;140860.59;1590296;90;21133;-65
2021/12/26 01:15:10;;;;;;;33.38;14.58;;;;;;;-5.88;79.34;140850.69;1590455;90;21519;-65
2021/12/26 01:17:45;;;;;;;37.30;15.85;;;;;;;-5.81;79.67;140866.78;1590566;90;21089;-66
2021/12/26 01:20:25;;;;;;;29.15;13.53;;;;;;;-5.75;79.57;140881.59;1590453;90;21105;-65
2021/12/26 01:22:47;;;;;;;31.50;13.75;;;;;;;-5.71;79.46;140891.50;1585752;90;21512;-65
2021/12/26 01:25:15;;;;;;;27.07;12.60;;;;;;;-5.73;79.29;140886.55;1586540;90;21595;-65
2021/12/26 01:27:42;;;;;;;27.27;12.65;;;;;;;-5.75;79.39;140881.59;1586399;90;21101;-64
2021/12/26 01:30:11;;;;;;;24.15;10.28;;;;;;;-5.79;79.15;140871.73;1586387;90;21088;-64
2021/12/26 01:32:40;;;;;;;22.17;11.10;;;;;;;-5.85;79.28;140856.88;1586048;90;21101;-64
2021/12/26 01:35:09;;;;;;;19.50;10.08;;;;;;;-5.91;79.30;140844.50;1583771;90;21203;-63
2021/12/26 01:37:37;;;;;;;22.37;11.05;;;;;;;-5.98;79.40;140827.28;1524950;90;21136;-63
2021/12/26 01:40:10;;;;;;;21.75;9.73;;;;;;;-6.05;79.59;140809.97;1561567;90;21082;-65
2021/12/26 01:42:38;;;;;;;23.27;10.05;;;;;;;-6.12;79.74;140793.89;1584617;90;21106;-65
2021/12/26 01:45:08;;;;;;;25.50;11.25;;;;;;;-6.14;80.09;140787.72;1584386;90;21117;-65
2021/12/26 01:47:37;;;;;;;25.08;10.58;;;;;;;-6.16;80.13;140782.75;1584904;90;21077;-64
2021/12/26 01:50:06;;;;;;;24.87;11.60;;;;;;;-6.23;80.27;140766.72;1586580;90;21078;-65
2021/12/26 01:52:35;;;;;;;26.42;11.57;;;;;;;-6.20;80.43;140772.91;1586367;90;21085;-65
2021/12/26 01:55:26;;;;;;;36.75;14.20;;;;;;;-6.22;80.41;140769.17;1586653;90;21062;-65
2021/12/26 01:57:56;;;;;;;26.55;13.20;;;;;;;-6.22;80.50;140769.17;1586330;90;21143;-65
2021/12/26 02:00:25;;;;;;;27.67;11.97;;;;;;;-6.19;80.84;140775.34;1586659;90;21074;-65
2021/12/26 02:02:52;;;;;;;23.42;10.70;;;;;;;-6.17;80.67;140780.30;1586312;89;21555;-65
2021/12/26 02:05:20;;;;;;;27.42;12.78;;;;;;;-6.16;80.83;140783.98;1586423;90;21050;-65
2021/12/26 02:07:47;;;;;;;28.02;12.47;;;;;;;-6.14;80.85;140787.72;1586603;89;21050;-66
2021/12/26 02:10:15;;;;;;;24.82;11.03;;;;;;;-6.18;80.65;140777.81;1586379;89;21118;-65
2021/12/26 02:12:43;;;;;;;26.62;12.23;;;;;;;-6.22;80.92;140769.17;1586487;90;21101;-65
2021/12/26 02:15:11;;;;;;;27.00;11.73;;;;;;;-6.27;80.96;140755.59;1586582;90;21038;-66
2021/12/26 02:17:41;;;;;;;26.15;12.00;;;;;;;-6.38;80.84;140729.66;1585900;90;21590;-65
2021/12/26 02:20:40;;;;;;;22.30;10.63;;;;;;;-6.48;81.09;140706.17;1586384;89;21081;-65
2021/12/26 02:23:07;;;;;;;26.12;10.70;;;;;;;-6.51;81.40;140698.77;1586528;89;21049;-64
2021/12/26 02:27:30;;;;;;;26.75;12.25;;;;;;;-6.51;81.52;140698.77;1587316;90;21097;-65
2021/12/26 02:27:58;;;;;;;27.05;11.28;;;;;;;-6.53;81.62;140692.59;1585059;90;21086;-64
2021/12/26 02:30:24;;;;;;;25.97;12.65;;;;;;;-6.56;81.74;140687.64;1588267;90;21097;-63
2021/12/26 02:32:58;;;;;;;31.17;12.93;;;;;;;-6.56;81.71;140686.41;1588443;90;21129;-65
2021/12/26 02:35:23;;;;;;;31.30;12.75;;;;;;;-6.58;81.92;140681.47;1588223;90;21058;-65
2021/12/26 02:37:50;;;;;;;24.30;11.12;;;;;;;-6.59;82.09;140678.97;1588322;90;21100;-64
2021/12/26 02:40:18;;;;;;;28.20;13.55;;;;;;;-6.63;82.10;140669.11;1588274;89;21082;-63
2021/12/26 02:42:46;;;;;;;29.70;12.95;;;;;;;-6.62;82.31;140671.56;1588553;89;21112;-64
2021/12/26 02:45:14;;;;;;;31.10;11.83;;;;;;;-6.59;82.18;140678.97;1588411;89;21133;-64
2021/12/26 02:47:48;;;;;;;27.55;11.25;;;;;;;-6.67;82.09;140659.20;1588484;89;21053;-66
2021/12/26 02:50:23;;;;;;;21.50;11.68;;;;;;;-6.74;82.37;140641.91;1588346;90;21602;-64
2021/12/26 02:52:51;;;;;;;26.40;11.88;;;;;;;-6.78;82.55;140634.50;1588484;90;21109;-64
2021/12/26 02:55:21;;;;;;;25.88;12.25;;;;;;;-6.79;82.75;140632.06;1588288;90;21078;-63
2021/12/26 02:57:56;;;;;;;25.52;12.18;;;;;;;-6.79;82.75;140632.06;1588418;90;21138;-64
2021/12/26 03:00:27;;;;;;;30.80;13.00;;;;;;;-6.79;82.79;140630.83;1588277;90;21532;-63
2021/12/26 03:02:58;;;;;;;30.15;14.13;;;;;;;-6.74;83.13;140641.91;1588718;90;21041;-64
2021/12/26 03:05:31;;;;;;;29.10;15.13;;;;;;;-6.71;82.99;140649.36;1587986;90;21540;-65
2021/12/26 03:07:59;;;;;;;34.83;14.90;;;;;;;-6.72;82.87;140646.86;1588496;90;21081;-64
2021/12/26 03:10:27;;;;;;;27.75;13.13;;;;;;;-6.72;83.05;140646.86;1588456;89;21121;-65
2021/12/26 03:13:00;;;;;;;38.48;14.50;;;;;;;-6.74;83.09;140643.19;1588481;90;21090;-64
2021/12/26 03:15:30;;;;;;;25.95;13.62;;;;;;;-6.74;83.08;140643.19;1587709;90;21620;-65
2021/12/26 03:17:58;;;;;;;26.35;12.78;;;;;;;-6.73;83.14;140644.41;1588613;90;21121;-65
2021/12/26 03:20:31;;;;;;;25.45;11.68;;;;;;;-6.72;83.17;140646.86;1588611;89;21105;-65
2021/12/26 03:23:00;;;;;;;21.70;10.80;;;;;;;-6.72;83.10;140646.86;1588414;89;21572;-64
2021/12/26 03:25:29;;;;;;;24.77;12.37;;;;;;;-6.73;83.15;140645.63;1588453;89;21077;-62
2021/12/26 03:27:56;;;;;;;18.57;8.93;;;;;;;-6.75;83.17;140639.45;1588593;90;21573;-64
2021/12/26 03:30:27;;;;;;;19.73;10.55;;;;;;;-6.80;83.31;140629.56;1588344;90;21077;-63
2021/12/26 03:32:55;;;;;;;;;;;;;;;-6.84;83.37;140619.70;1590850;90;21082;-65
2021/12/26 03:35:25;;;;;;;21.20;10.18;;;;;;;-6.86;83.45;140614.75;1588263;90;20145;-65
2021/12/26 03:37:53;;;;;;;22.35;10.95;;;;;;;-6.86;83.63;140613.53;1588534;89;21531;-65
2021/12/26 03:40:25;;;;;;;23.40;12.28;;;;;;;-6.83;83.68;140620.94;1562918;90;21082;-65
2021/12/26 03:42:53;;;;;;;20.82;11.57;;;;;;;-6.80;83.55;140629.56;1588486;90;21097;-64
2021/12/26 03:45:21;;;;;;;23.55;12.43;;;;;;;-6.83;83.29;140620.94;1588249;89;21113;-66
2021/12/26 03:47:50;;;;;;;26.90;12.05;;;;;;;-6.86;83.40;140614.75;1588558;90;21546;-64
2021/12/26 03:50:22;;;;;;;25.00;12.40;;;;;;;-6.88;83.35;140609.81;1588576;90;21113;-64
2021/12/26 03:52:50;;;;;;;23.90;11.45;;;;;;;-6.85;83.45;140617.22;1588458;90;21085;-65
2021/12/26 03:55:19;;;;;;;24.15;11.43;;;;;;;-6.83;83.38;140622.16;1588469;90;21619;-65
2021/12/26 03:57:46;;;;;;;27.98;11.40;;;;;;;-6.83;83.42;140622.16;1588593;90;21026;-65
2021/12/26 04:00:15;;;;;;;22.10;9.93;;;;;;;-6.83;83.48;140622.16;1588279;89;21065;-63
2021/12/26 04:02:43;;;;;;;20.62;9.63;;;;;;;-6.84;83.52;140619.70;1588438;89;21122;-64
2021/12/26 04:05:12;;;;;;;18.52;9.05;;;;;;;-6.86;83.57;140614.75;1588443;90;21057;-65
2021/12/26 04:07:41;;;;;;;27.93;11.25;;;;;;;-6.86;83.62;140614.75;1588488;90;21021;-63
2021/12/26 04:10:11;;;;;;;20.90;10.25;;;;;;;-6.89;83.70;140607.36;1588499;90;21113;-64
2021/12/26 04:12:43;;;;;;;21.40;9.30;;;;;;;-6.88;83.71;140609.81;1588680;90;21058;-64
2021/12/26 04:15:12;;;;;;;23.05;9.65;;;;;;;-6.86;83.75;140613.53;1588400;90;21038;-65
2021/12/26 04:17:41;;;;;;;27.05;10.32;;;;;;;-6.90;83.77;140604.86;1588539;90;21159;-65
2021/12/26 04:20:10;;;;;;;17.80;8.98;;;;;;;-6.89;83.81;140607.36;1588614;90;21081;-65
2021/12/26 04:22:36;;;;;;;23.40;11.05;;;;;;;-6.88;83.87;140609.81;1589511;89;21077;-66
2021/12/26 04:25:06;;;;;;;23.35;11.00;;;;;;;-6.86;83.69;140614.75;1569400;90;21061;-67
2021/12/26 04:27:33;;;;;;;23.55;11.15;;;;;;;-6.91;83.46;140602.41;1590621;89;21061;-66
2021/12/26 04:30:00;;;;;;;27.95;11.65;;;;;;;-6.91;83.61;140602.41;1590392;89;21065;-64
2021/12/26 04:32:26;;;;;;;25.75;11.88;;;;;;;-6.91;83.60;140602.41;1590256;89;21133;-65
2021/12/26 04:34:52;;;;;;;33.25;13.32;;;;;;;-6.91;83.65;140601.19;1590422;89;21587;-67
2021/12/26 04:37:19;;;;;;;36.70;15.58;;;;;;;-6.89;83.70;140607.36;1590376;89;21094;-65
2021/12/26 04:39:47;;;;;;;37.73;16.48;;;;;;;-6.90;83.57;140604.86;1590498;90;21164;-65
2021/12/26 04:42:14;;;;;;;28.30;14.33;;;;;;;-6.92;83.55;140598.69;1590262;89;21053;-65
2021/12/26 04:44:59;;;;;;;26.60;12.25;;;;;;;-6.94;83.72;140593.78;1590520;90;21089;-65
2021/12/26 04:47:39;;;;;;;30.17;12.75;;;;;;;-6.95;83.57;140592.52;1494441;95;21111;-65
2021/12/26 04:50:12;;;;;;;25.32;11.33;;;;;;;-6.97;83.59;140587.61;1590547;89;21132;-65
2021/12/26 04:52:43;;;;;;;27.70;12.00;;;;;;;-7.06;83.50;140565.36;1590257;90;21141;-64
2021/12/26 04:55:16;;;;;;;25.43;11.50;;;;;;;-7.18;83.78;140536.95;1590295;90;21093;-65
2021/12/26 04:57:43;;;;;;;32.45;13.25;;;;;;;-7.21;84.13;140530.78;1590726;90;21109;-66
2021/12/26 05:00:16;;;;;;;25.68;11.48;;;;;;;-7.25;84.16;140520.94;1590576;89;21093;-65
2021/12/26 05:02:44;;;;;;;27.48;11.85;;;;;;;-7.29;84.41;140511.03;1590560;90;21038;-65
2021/12/26 05:05:12;;;;;;;23.65;11.60;;;;;;;-7.35;84.42;140496.25;1590634;90;21081;-64
2021/12/26 05:07:40;;;;;;;29.15;11.68;;;;;;;-7.38;84.60;140488.80;1590564;90;21038;-64
2021/12/26 05:10:10;;;;;;;21.62;10.70;;;;;;;-7.40;84.76;140483.89;1590397;90;21139;-64
2021/12/26 05:12:37;;;;;;;24.20;11.55;;;;;;;-7.39;84.95;140486.34;1590616;90;21077;-64
2021/12/26 05:15:05;;;;;;;21.85;10.88;;;;;;;-7.37;84.99;140490.06;1590385;89;21206;-64
2021/12/26 05:17:33;;;;;;;21.93;12.15;;;;;;;-7.37;85.13;140490.06;1590604;90;21113;-64
2021/12/26 05:20:01;;;;;;;23.60;11.20;;;;;;;-7.38;85.15;140488.80;1590337;89;21089;-64
2021/12/26 05:22:28;;;;;;;22.58;10.05;;;;;;;-7.37;85.29;140490.06;1589796;89;21109;-64
2021/12/26 05:24:54;;;;;;;23.52;11.40;;;;;;;-7.39;85.31;140486.34;1588411;90;21084;-65
2021/12/26 05:27:21;;;;;;;27.52;12.35;;;;;;;-7.43;85.38;140476.45;1588499;90;21090;-64
2021/12/26 05:29:47;;;;;;;29.32;12.75;;;;;;;-7.45;85.66;140472.78;1588414;89;21085;-65
2021/12/26 05:32:16;;;;;;;26.80;12.82;;;;;;;-7.44;85.74;140474.00;1588512;90;21163;-65
2021/12/26 05:34:44;;;;;;;25.08;12.90;;;;;;;-7.45;85.85;140471.56;1588301;89;21082;-63
2021/12/26 05:37:11;;;;;;;29.87;13.75;;;;;;;-7.45;85.87;140472.78;1588607;89;21125;-64
2021/12/26 05:39:38;;;;;;;25.27;12.25;;;;;;;-7.48;85.93;140464.11;1588366;89;21092;-63
2021/12/26 05:42:06;;;;;;;25.48;12.93;;;;;;;-7.49;86.05;140461.66;1588297;90;21117;-63
2021/12/26 05:44:33;;;;;;;28.85;12.98;;;;;;;-7.50;86.15;140459.22;1588547;89;21628;-64
2021/12/26 05:47:02;;;;;;;33.85;13.60;;;;;;;-7.53;86.19;140451.77;1588321;89;21579;-63
2021/12/26 05:49:30;;;;;;;34.92;14.47;;;;;;;-7.54;86.33;140450.55;1596065;89;21049;-64
2021/12/26 05:52:03;;;;;;;29.35;13.15;;;;;;;-7.53;86.36;140453.03;1600640;89;21090;-64
2021/12/26 05:54:32;;;;;;;29.10;12.82;;;;;;;-7.51;86.36;140456.72;1588225;87;21029;-64
2021/12/26 05:57:00;;;;;;;26.90;12.78;;;;;;;-7.48;86.38;140464.11;1601543;87;21022;-63
2021/12/26 05:59:28;;;;;;;23.10;11.43;;;;;;;-7.46;86.35;140469.06;1599405;89;21554;-67
2021/12/26 06:01:55;;;;;;;30.23;13.70;;;;;;;-7.48;86.39;140464.11;1597347;87;21531;-63
2021/12/26 06:04:23;;;;;;;28.98;13.18;;;;;;;-7.44;86.40;140474.00;1584734;91;21077;-63
2021/12/26 06:06:51;;;;;;;32.85;13.45;;;;;;;-7.48;86.32;140465.37;1560421;91;21094;-63
2021/12/26 06:09:18;;;;;;;34.10;13.98;;;;;;;-7.54;86.32;140449.31;1584977;90;21556;-63
2021/12/26 06:11:45;;;;;;;30.77;14.80;;;;;;;-7.53;86.54;140451.77;1585029;89;21340;-63
2021/12/26 06:14:13;;;;;;;35.43;16.17;;;;;;;-7.35;86.83;140496.25;1584795;91;21086;-64
2021/12/26 06:16:40;;;;;;;32.55;14.87;;;;;;;-6.91;86.74;140601.19;1584498;91;21111;-65
2021/12/26 06:19:08;;;;;;;29.77;15.13;;;;;;;-6.34;86.41;140740.73;1599520;87;21073;-66
2021/12/26 06:21:39;;;;;;;29.40;13.32;;;;;;;-5.63;85.30;140910.05;1542156;87;21041;-65
2021/12/26 06:24:16;;;;;;;29.32;13.98;;;;;;;-4.93;83.65;141079.52;1590869;88;21539;-64
2021/12/26 06:27:01;;;;;;;30.85;14.83;;;;;;;-4.15;81.78;141270.12;1579740;91;21062;-65
2021/12/26 06:29:46;;;;;;;31.97;15.32;;;;;;;-3.45;78.74;141437.34;1580099;90;21616;-65
2021/12/26 06:32:26;;;;;;;36.13;16.48;;;;;;;-2.73;76.24;141612.08;1552723;90;21130;-65
2021/12/26 06:34:58;;;;;;;36.23;17.57;;;;;;;-2.02;73.65;141784.47;1572737;91;21086;-66
2021/12/26 06:37:34;;;;;;;30.85;16.12;;;;;;;-1.46;71.05;141920.97;1562239;89;21101;-65
2021/12/26 06:40:19;;;;;;;35.50;18.10;;;;;;;-0.82;68.21;142074.94;1593173;88;21157;-66
2021/12/26 06:43:06;;;;;;;30.62;16.48;;;;;;;-0.03;66.06;142267.52;1588158;89;21536;-66
2021/12/26 06:45:54;;;;;;;34.95;16.12;;;;;;;0.92;63.29;142497.59;1591300;88;21142;-65
2021/12/26 06:48:41;;;;;;;30.10;14.53;;;;;;;1.88;59.62;142732.81;1593342;88;21157;-66
2021/12/26 06:51:08;;;;;;;29.75;15.45;;;;;;;2.62;57.54;142912.16;1589776;89;21077;-66
2021/12/26 06:53:36;;;;;;;27.82;13.85;;;;;;;3.22;54.73;143059.17;1591759;88;21552;-64
2021/12/26 06:56:03;;;;;;;28.90;15.20;;;;;;;3.68;52.36;143171.37;1594074;88;21026;-66
2021/12/26 06:58:31;;;;;;;24.98;13.48;;;;;;;3.90;51.02;143223.78;1592243;89;21050;-66
2021/12/26 07:00:58;;;;;;;27.90;14.60;;;;;;;4.39;49.24;143343.53;1591589;89;20990;-65
2021/12/26 07:03:25;;;;;;;28.62;15.45;;;;;;;4.92;48.08;143473.33;1579783;91;21132;-66
2021/12/26 07:05:51;;;;;;;26.52;15.03;;;;;;;5.38;46.86;143585.70;1580012;89;21070;-66
2021/12/26 07:08:20;;;;;;;25.97;14.10;;;;;;;5.87;45.54;143704.36;1579791;91;21091;-66
2021/12/26 07:10:49;;;;;;;25.32;15.40;;;;;;;6.46;44.28;143848.11;1581399;88;21519;-66
2021/12/26 07:13:16;;;;;;;29.67;14.73;;;;;;;6.99;42.90;143978.16;1591270;88;21113;-67
2021/12/26 07:15:45;;;;;;;29.45;16.57;;;;;;;7.24;41.18;144038.19;1592656;88;21078;-66
2021/12/26 07:18:11;;;;;;;29.92;17.87;;;;;;;7.30;40.95;144054.47;1593453;88;21081;-66
2021/12/26 07:20:40;;;;;;;31.82;17.05;;;;;;;7.41;40.16;144080.73;1588327;88;21061;-66
2021/12/26 07:23:25;;;;;;;31.05;16.67;;;;;;;7.40;40.10;144078.20;1601483;87;21094;-66
2021/12/26 07:25:56;;;;;;;29.82;17.85;;;;;;;7.51;39.25;144105.75;1606064;88;21097;-66
2021/12/26 07:28:23;;;;;;;31.00;17.25;;;;;;;7.46;38.80;144093.23;1606282;88;21074;-66
2021/12/26 07:31:10;;;;;;;32.58;18.02;;;;;;;7.54;39.13;144112.00;1605631;88;21074;-66
2021/12/26 07:33:37;;;;;;;31.12;17.05;;;;;;;7.80;38.00;144177.05;1606337;88;21157;-66
2021/12/26 07:36:06;;;;;;;29.15;15.30;;;;;;;7.95;38.17;144213.34;1606308;88;21106;-66
2021/12/26 07:38:43;;;;;;;26.12;15.68;;;;;;;8.27;37.43;144290.98;1605932;89;21030;-66
2021/12/26 07:41:11;;;;;;;25.72;15.45;;;;;;;8.40;37.33;144323.56;1606334;88;21073;-66
2021/12/26 07:43:38;;;;;;;30.50;16.02;;;;;;;8.60;36.88;144371.13;1606167;88;21070;-66
2021/12/26 07:46:06;;;;;;;28.77;16.07;;;;;;;8.84;36.42;144431.25;1580254;88;21141;-66
2021/12/26 07:48:33;;;;;;;32.73;16.55;;;;;;;9.14;36.15;144503.92;1606268;88;21077;-66
2021/12/26 07:51:03;;;;;;;25.08;14.98;;;;;;;9.35;35.29;144556.52;1584661;88;21105;-66
2021/12/26 07:53:43;;;;;;;27.50;15.60;;;;;;;9.24;35.23;144528.97;1573562;90;21083;-66
2021/12/26 07:56:31;;;;;;;25.43;14.30;;;;;;;9.16;34.94;144508.94;1579992;90;21528;-66
2021/12/26 07:59:16;;;;;;;25.27;15.10;;;;;;;8.91;35.08;144448.80;1580075;91;21051;-66
2021/12/26 08:01:54;;;;;;;27.73;14.50;;;;;;;8.59;35.03;144368.64;1540160;93;21138;-66
2021/12/26 08:04:25;;;;;;;24.17;13.93;;;;;;;8.39;35.70;144319.75;1572183;91;21117;-66
2021/12/26 08:07:10;;;;;;;25.27;13.48;;;;;;;8.22;35.76;144278.47;1550559;91;21657;-66
2021/12/26 08:09:37;;;;;;;23.22;13.55;;;;;;;7.86;36.50;144189.56;1580061;91;21607;-67
2021/12/26 08:12:04;;;;;;;21.70;13.00;;;;;;;7.80;36.33;144175.81;1580011;91;21058;-66
2021/12/26 08:14:32;;;;;;;23.87;13.00;;;;;;;7.68;36.51;144145.77;1580033;90;21576;-66
2021/12/26 08:16:58;;;;;;;21.73;13.03;;;;;;;7.22;36.84;144033.19;1579838;91;21134;-66
2021/12/26 08:19:26;;;;;;;28.27;14.13;;;;;;;6.68;37.63;143903.13;1580060;91;21297;-66
2021/12/26 08:21:54;;;;;;;26.90;13.30;;;;;;;6.18;38.28;143780.66;1579884;91;21098;-67
2021/12/26 08:24:22;;;;;;;25.68;14.35;;;;;;;5.47;39.41;143605.67;1580022;90;21086;-66
2021/12/26 08:26:51;;;;;;;24.32;12.95;;;;;;;4.77;40.98;143435.88;1579875;90;21098;-66
2021/12/26 08:29:23;;;;;;;25.35;13.60;;;;;;;4.46;42.10;143361.00;1580042;91;21157;-66
2021/12/26 08:31:48;;;;;;;25.27;13.55;;;;;;;4.26;42.37;143312.33;1579416;91;21078;-66
2021/12/26 08:34:20;;;;;;;21.55;12.03;;;;;;;3.80;43.01;143198.83;1579767;91;21591;-65
2021/12/26 08:36:43;;;;;;;22.10;12.43;;;;;;;3.53;44.18;143133.97;1579617;91;21585;-66
2021/12/26 08:39:09;;;;;;;27.67;12.73;;;;;;;3.59;44.44;143148.95;1579881;90;21129;-66
2021/12/26 08:41:36;;;;;;;26.05;13.25;;;;;;;3.66;44.52;143165.14;1580131;90;21105;-65
2021/12/26 08:44:03;;;;;;;24.82;13.43;;;;;;;3.62;44.53;143156.44;1579800;90;21059;-66
2021/12/26 08:46:30;;;;;;;26.20;12.95;;;;;;;3.13;45.21;143036.75;1579850;90;21054;-65
2021/12/26 08:48:56;;;;;;;26.62;13.70;;;;;;;2.60;46.34;142908.41;1580024;91;21099;-65
2021/12/26 08:51:23;;;;;;;24.67;12.78;;;;;;;2.11;47.52;142787.55;1579877;91;21090;-65
2021/12/26 08:53:49;;;;;;;24.35;13.32;;;;;;;1.69;48.63;142685.47;1579976;91;21101;-66
2021/12/26 08:56:16;;;;;;;28.27;13.53;;;;;;;1.47;49.33;142633.17;1579880;91;21070;-70
2021/12/26 08:58:43;;;;;;;25.50;13.08;;;;;;;1.15;50.38;142553.58;1580083;90;21065;-66
2021/12/26 09:01:09;;;;;;;31.40;15.13;;;;;;;0.84;51.21;142478.89;1579805;91;21587;-65
2021/12/26 09:03:37;;;;;;;24.92;13.68;;;;;;;0.59;52.07;142417.98;1580001;91;21133;-63
2021/12/26 09:06:04;;;;;;;23.38;13.00;;;;;;;0.45;53.00;142384.38;1580041;91;21077;-66
2021/12/26 09:08:31;;;;;;;29.45;15.20;;;;;;;0.17;53.49;142316.00;1580029;90;21141;-66
2021/12/26 09:10:58;;;;;;;24.05;11.90;;;;;;;-0.09;54.53;142252.63;1579908;91;21082;-66
2021/12/26 09:13:24;;;;;;;26.07;14.23;;;;;;;-0.31;55.06;142200.41;1579860;90;21572;-65
2021/12/26 09:15:51;;;;;;;27.50;13.43;;;;;;;-0.57;55.88;142137.05;1579835;89;21058;-65
2021/12/26 09:18:17;;;;;;;30.65;14.58;;;;;;;-0.79;56.94;142083.66;1580027;89;21575;-65
2021/12/26 09:20:45;;;;;;;24.05;12.78;;;;;;;-1.01;57.96;142030.25;1578259;91;21638;-65
2021/12/26 09:23:11;;;;;;;23.42;12.98;;;;;;;-1.24;58.91;141974.38;1579837;90;21134;-65
2021/12/26 09:25:38;;;;;;;25.77;11.93;;;;;;;-1.42;59.23;141929.69;1579876;91;21571;-66
2021/12/26 09:28:05;;;;;;;28.87;14.45;;;;;;;-1.51;60.12;141908.56;1579834;91;21094;-65
2021/12/26 09:30:31;;;;;;;25.10;12.33;;;;;;;-1.57;60.63;141894.92;1579847;91;21138;-65
2021/12/26 09:32:58;;;;;;;24.40;11.38;;;;;;;-1.63;61.10;141880.05;1579868;91;21122;-65
2021/12/26 09:35:25;;;;;;;23.47;11.75;;;;;;;-1.68;61.32;141867.63;1579924;90;21628;-65
2021/12/26 09:37:52;;;;;;;21.93;10.72;;;;;;;-1.67;61.48;141870.09;1579835;90;21209;-65
2021/12/26 09:40:19;;;;;;;19.87;9.88;;;;;;;-1.70;61.82;141862.66;1579921;90;21094;-65
2021/12/26 09:42:48;;;;;;;23.18;11.38;;;;;;;-1.77;61.91;141846.52;1579911;91;21074;-65
2021/12/26 09:45:16;;;;;;;24.52;10.90;;;;;;;-1.78;62.26;141842.77;1579857;91;21090;-65
2021/12/26 09:47:45;;;;;;;19.17;9.10;;;;;;;-1.81;63.00;141836.56;1580109;90;21102;-65
2021/12/26 09:50:13;;;;;;;15.53;7.62;;;;;;;-1.82;62.64;141834.09;1579957;91;21184;-65
2021/12/26 09:52:47;;;;;;;17.45;8.13;;;;;;;-1.82;62.44;141832.88;1580038;91;21038;-66
2021/12/26 09:55:15;;;;;;;17.37;7.80;;;;;;;-1.79;62.34;141840.31;1580000;91;21038;-65
2021/12/26 09:57:42;;;;;;;17.55;8.30;;;;;;;-1.70;62.40;141862.66;1579782;90;21098;-65
2021/12/26 10:00:23;;;;;;;22.90;9.33;;;;;;;-1.60;62.29;141887.48;1579925;91;21086;-65
2021/12/26 10:03:33;;;;;;;15.68;7.47;;;;;;;-1.48;62.31;141914.77;1535759;93;21573;-65
2021/12/26 10:06:09;;;;;;;20.15;9.33;;;;;;;-1.48;62.11;141914.77;1571229;91;21568;-65
2021/12/26 10:09:00;;;;;;;19.87;8.15;;;;;;;-1.49;62.13;141913.53;1571511;91;21109;-66
2021/12/26 10:11:38;;;;;;;15.85;7.85;;;;;;;-1.41;62.04;141932.16;1571674;91;21098;-64
2021/12/26 10:14:15;;;;;;;18.62;7.62;;;;;;;-1.31;61.88;141956.98;1571694;91;21070;-65
2021/12/26 10:16:56;;;;;;;14.60;6.87;;;;;;;-1.22;61.51;141979.34;1519118;94;21543;-65
2021/12/26 10:19:25;;;;;;;16.52;8.08;;;;;;;-1.17;61.51;141990.48;1548948;92;21588;-65
2021/12/26 10:22:01;;;;;;;19.87;8.80;;;;;;;-1.15;61.43;141996.69;1548860;93;21062;-65
2021/12/26 10:24:35;;;;;;;17.10;8.23;;;;;;;-1.09;61.39;142010.39;1553284;91;21152;-65
2021/12/26 10:27:28;;;;;;;20.00;7.60;;;;;;;-1.02;61.06;142026.50;1558159;92;21050;-65
2021/12/26 10:29:57;;;;;;;17.75;7.55;;;;;;;-0.94;60.92;142046.36;1557986;92;21030;-65
2021/12/26 10:32:33;;;;;;;16.48;7.95;;;;;;;-0.88;60.81;142061.28;1558014;92;21089;-66
2021/12/26 10:35:13;;;;;;;14.95;6.97;;;;;;;-0.87;60.49;142063.75;1557955;92;21538;-65
2021/12/26 10:37:52;;;;;;;15.05;6.90;;;;;;;-0.92;60.36;142051.34;1558147;91;21085;-65
2021/12/26 10:40:25;;;;;;;17.77;7.65;;;;;;;-0.92;60.22;142051.34;1557822;92;21069;-65
2021/12/26 10:42:56;;;;;;;13.32;6.55;;;;;;;-0.91;60.23;142055.08;1558093;92;21070;-65
2021/12/26 10:45:30;;;;;;;16.17;7.53;;;;;;;-0.83;59.65;142073.72;1558056;92;21062;-65
2021/12/26 10:48:01;;;;;;;18.52;7.10;;;;;;;-0.78;59.92;142084.91;1580259;91;21611;-65
2021/12/26 10:50:31;;;;;;;18.02;7.78;;;;;;;-0.70;59.78;142106.00;1580848;91;21070;-66
2021/12/26 10:53:05;;;;;;;12.80;7.20;;;;;;;-0.68;59.55;142109.73;1581097;91;21085;-66
2021/12/26 10:55:42;;;;;;;17.67;7.72;;;;;;;-0.61;59.28;142125.86;1580933;90;21070;-66
2021/12/26 10:58:13;;;;;;;17.60;8.13;;;;;;;-0.46;59.37;142163.13;1581173;91;21113;-65
2021/12/26 11:00:48;;;;;;;18.73;8.50;;;;;;;0.03;58.60;142281.22;1581326;90;21105;-65
2021/12/26 11:03:23;;;;;;;16.62;6.85;;;;;;;0.11;58.16;142302.34;1580967;91;21577;-66
2021/12/26 11:05:57;;;;;;;16.30;7.65;;;;;;;0.01;57.64;142277.48;1581080;91;21105;-65
2021/12/26 11:08:31;;;;;;;14.65;7.15;;;;;;;-0.08;57.58;142256.31;1580810;91;21548;-66
2021/12/26 11:11:16;;;;;;;16.02;7.92;;;;;;;-0.03;57.73;142268.75;1580883;91;21074;-65
2021/12/26 11:13:46;;;;;;;19.23;8.48;;;;;;;0.03;57.56;142282.47;1580876;90;21071;-67
2021/12/26 11:16:16;;;;;;;18.25;9.20;;;;;;;0.12;57.49;142303.56;1581085;90;21058;-65
2021/12/26 11:18:43;;;;;;;14.05;6.67;;;;;;;0.17;57.47;142317.23;1581151;91;21070;-65
2021/12/26 11:21:14;;;;;;;16.70;7.30;;;;;;;0.21;57.51;142325.97;1561809;91;21094;-65
2021/12/26 11:23:43;;;;;;;15.05;7.15;;;;;;;0.15;57.07;142312.30;1581235;89;21042;-66
2021/12/26 11:26:20;;;;;;;15.75;7.58;;;;;;;0.09;57.13;142296.13;1586506;90;21069;-65